Portada
METAR-TAF:

METAR-TAF

Aeroports :

Franklin County, Vermont, Estats Units d'Amèrica

latitud: 44-56-25N, longitud: 073-05-51W, altitud: 69 m

Observació

L'informe es va fer fa 17 minuts, a les 17:55 UTC
Vent 6 kt del Sud/Sud-Oest
Temperatura 25°C
Humitat 39%
Pressió 1019 hPa
Visibilitat: 16.1 km
Cel ennuvolat a una alçada de 5000 ft
Cel ennuvolat a una alçada de 6000 ft
Cel cobert a una alçada de 10000 ft

METAR: KFSO 251755Z AUTO 21006KT 10SM BKN050 BKN060 OVC100 25/10 A3010 RMK AO2 T02500100 10250 20187

Hora: 14:12 (18:12 UTC)


TAF: manca

Observacions i pronòstics meteorològics de més de 4000 aeroports (METAR i TAF).

Les estacions disponibles són els punts grocs i vermells al mapa.

Posi el ratolí al punt desitjat per veure el nom de l'estació.

Feu clic per veure les observacions i els pronòstics meteorològics.

Per canviar el mapa: feu clic els botons verds amb una creu de color negre per apropar; al botó verd amb un guió per allunyar la imatge; o en les fletxes verdes per a mapes adjacents.


METAR-TAF: